createdAt,value
2022-12-13T00:02:22.410Z,78.57
2022-12-13T00:05:25.037Z,78.52
2022-12-13T00:08:27.668Z,78.38
2022-12-13T00:11:30.318Z,77.89
2022-12-13T00:14:33.505Z,78.00
2022-12-13T00:17:37.455Z,78.63
2022-12-13T00:20:41.185Z,78.50
2022-12-13T00:23:43.760Z,78.02
2022-12-13T00:26:46.356Z,77.94
2022-12-13T00:29:48.981Z,77.33
2022-12-13T00:32:52.916Z,77.89
2022-12-13T00:35:55.904Z,76.63
2022-12-13T00:39:01.606Z,77.29
2022-12-13T00:42:04.257Z,76.84
2022-12-13T00:45:07.689Z,78.57
2022-12-13T00:48:11.716Z,77.83
2022-12-13T00:51:14.334Z,76.28
2022-12-13T00:54:17.541Z,76.29
2022-12-13T00:57:21.133Z,77.14
2022-12-13T01:00:25.493Z,77.46
2022-12-13T01:03:29.467Z,76.57
2022-12-13T01:06:35.046Z,77.55
2022-12-13T01:09:39.474Z,76.90
2022-12-13T01:12:42.068Z,76.26
2022-12-13T01:15:45.815Z,77.42
2022-12-13T01:18:49.761Z,77.21
2022-12-13T01:21:55.816Z,77.77
2022-12-13T01:24:58.430Z,78.26
2022-12-13T01:28:01.031Z,77.65
2022-12-13T01:31:05.968Z,76.99
2022-12-13T01:34:11.255Z,77.11
2022-12-13T01:37:13.842Z,76.55
2022-12-13T01:40:16.696Z,76.90
2022-12-13T01:43:19.284Z,75.58
2022-12-13T01:46:22.522Z,75.64
2022-12-13T01:49:26.468Z,75.76
2022-12-13T01:52:31.392Z,76.18
2022-12-13T01:55:41.616Z,76.01
2022-12-13T01:58:46.167Z,78.24
2022-12-13T02:01:50.563Z,77.04
2022-12-13T02:05:00.197Z,77.59
2022-12-13T02:08:04.397Z,76.63
2022-12-13T02:11:08.477Z,76.74
2022-12-13T02:14:13.202Z,76.70
2022-12-13T02:17:24.766Z,77.09
2022-12-13T02:20:47.349Z,77.33
2022-12-13T02:24:23.265Z,76.20
2022-12-13T02:28:00.779Z,76.65
2022-12-13T02:31:12.575Z,75.71
2022-12-13T02:34:23.466Z,75.69
2022-12-13T02:37:31.700Z,75.39
2022-12-13T02:40:40.198Z,75.27
2022-12-13T02:43:48.943Z,75.95
2022-12-13T02:46:56.269Z,76.46
2022-12-13T02:50:02.699Z,77.07
2022-12-13T02:53:07.059Z,76.30
2022-12-13T02:56:09.704Z,75.86
2022-12-13T02:59:14.966Z,75.46
2022-12-13T03:02:31.446Z,74.73
2022-12-13T03:06:00.741Z,75.61
2022-12-13T03:09:24.555Z,75.57
2022-12-13T03:12:54.038Z,75.30
2022-12-13T03:15:58.802Z,74.39
2022-12-13T03:19:05.775Z,75.34
2022-12-13T03:22:08.379Z,75.35
2022-12-13T03:25:10.989Z,75.46
2022-12-13T03:28:13.675Z,76.29
2022-12-13T03:31:16.395Z,76.67
2022-12-13T03:34:22.309Z,76.76
2022-12-13T03:37:25.748Z,76.54
2022-12-13T03:40:29.344Z,75.75
2022-12-13T03:43:32.144Z,75.38
2022-12-13T03:46:34.848Z,75.67
2022-12-13T03:49:38.952Z,76.55
2022-12-13T03:52:41.652Z,75.20
2022-12-13T03:55:44.491Z,74.54
2022-12-13T03:58:47.088Z,74.30
2022-12-13T04:01:49.677Z,75.43
2022-12-13T04:04:53.641Z,74.40
2022-12-13T04:08:00.807Z,74.27
2022-12-13T04:11:25.565Z,74.45
2022-12-13T04:14:27.176Z,74.69
2022-12-13T04:17:29.770Z,75.34
2022-12-13T04:20:33.706Z,75.91
2022-12-13T04:23:36.309Z,75.06
2022-12-13T04:26:38.932Z,75.97
2022-12-13T04:29:41.577Z,75.35
2022-12-13T04:32:44.215Z,76.60
2022-12-13T04:35:48.200Z,76.96
2022-12-13T04:38:50.798Z,76.37
2022-12-13T04:41:54.134Z,76.79
2022-12-13T04:44:56.722Z,76.44
2022-12-13T04:47:59.339Z,77.30
2022-12-13T04:51:03.588Z,76.87
2022-12-13T04:54:13.101Z,76.90
2022-12-13T04:57:27.007Z,77.58
2022-12-13T05:00:29.604Z,78.22
2022-12-13T05:03:32.199Z,77.78
2022-12-13T05:06:36.178Z,79.07
2022-12-13T05:09:38.858Z,78.68
2022-12-13T05:12:41.485Z,78.76
2022-12-13T05:15:44.080Z,79.55
2022-12-13T05:18:46.818Z,79.69
2022-12-13T05:21:50.976Z,80.03
2022-12-13T05:24:53.616Z,80.14
2022-12-13T05:27:57.270Z,80.46
2022-12-13T05:31:23.227Z,79.93
2022-12-13T05:34:26.655Z,80.07
2022-12-13T05:37:30.585Z,81.01
2022-12-13T05:40:37.525Z,81.57
2022-12-13T05:43:43.073Z,80.02
2022-12-13T05:46:46.074Z,79.44
2022-12-13T05:49:48.638Z,79.48
2022-12-13T05:52:52.650Z,80.43
2022-12-13T05:55:55.286Z,81.65
2022-12-13T05:58:58.012Z,81.26
2022-12-13T06:02:00.628Z,81.55
2022-12-13T06:05:03.263Z,81.56
2022-12-13T06:08:24.552Z,81.29
2022-12-13T06:11:31.085Z,81.21
2022-12-13T06:14:34.807Z,82.08
2022-12-13T06:17:37.815Z,81.68
2022-12-13T06:20:40.393Z,81.89
2022-12-13T06:23:44.349Z,81.76
2022-12-13T06:26:47.321Z,82.28
2022-12-13T06:29:49.904Z,81.98
2022-12-13T06:32:52.501Z,81.92
2022-12-13T06:35:57.725Z,82.23
2022-12-13T06:39:04.537Z,83.01
2022-12-13T06:42:08.361Z,82.46
2022-12-13T06:45:11.251Z,83.23
2022-12-13T06:48:18.746Z,83.30
2022-12-13T06:51:32.471Z,82.65
2022-12-13T06:54:37.272Z,83.53
2022-12-13T06:57:40.842Z,83.19
2022-12-13T07:00:44.356Z,82.01
2022-12-13T07:03:51.902Z,82.28
2022-12-13T07:06:54.547Z,82.74
2022-12-13T07:09:58.517Z,82.85
2022-12-13T07:13:01.117Z,83.76
2022-12-13T07:16:03.761Z,83.52
2022-12-13T07:19:06.996Z,84.01
2022-12-13T07:22:25.818Z,83.58
2022-12-13T07:25:29.999Z,83.59
2022-12-13T07:28:33.938Z,82.99
2022-12-13T07:31:37.531Z,83.52
2022-12-13T07:34:40.209Z,82.84
2022-12-13T07:37:43.369Z,83.53
2022-12-13T07:40:47.328Z,83.44
2022-12-13T07:43:55.273Z,82.45
2022-12-13T07:46:58.523Z,82.42
2022-12-13T07:50:01.688Z,83.34
2022-12-13T07:53:06.588Z,81.91
2022-12-13T07:56:12.453Z,82.65
2022-12-13T07:59:16.247Z,81.58
2022-12-13T08:02:31.216Z,81.54
2022-12-13T08:05:38.569Z,82.13
2022-12-13T08:08:41.717Z,81.77
2022-12-13T08:11:45.698Z,81.99
2022-12-13T08:14:48.273Z,82.08
2022-12-13T08:17:57.090Z,82.06
2022-12-13T08:21:00.365Z,82.50
2022-12-13T08:24:02.948Z,82.32
2022-12-13T08:27:06.915Z,82.66
2022-12-13T08:30:10.656Z,82.03
2022-12-13T08:33:13.372Z,82.65
2022-12-13T08:36:17.726Z,81.72
2022-12-13T08:39:20.298Z,81.78
2022-12-13T08:42:25.165Z,81.26
2022-12-13T08:45:27.995Z,80.98
2022-12-13T08:48:31.198Z,81.29
2022-12-13T08:51:35.495Z,80.92
2022-12-13T08:54:38.407Z,81.31
2022-12-13T08:57:43.844Z,81.13
2022-12-13T09:00:47.021Z,81.11
2022-12-13T09:03:49.738Z,81.50
2022-12-13T09:06:52.312Z,81.73
2022-12-13T09:09:55.326Z,80.77
2022-12-13T09:13:01.798Z,80.94
2022-12-13T09:16:13.846Z,80.25
2022-12-13T09:19:24.919Z,80.92
2022-12-13T09:22:32.990Z,80.90
2022-12-13T09:25:37.371Z,80.89
2022-12-13T09:28:42.399Z,80.93
2022-12-13T09:31:52.648Z,81.25
2022-12-13T09:34:56.071Z,81.25
2022-12-13T09:37:58.636Z,80.86
2022-12-13T09:41:10.273Z,81.92
2022-12-13T09:44:32.634Z,81.16
2022-12-13T09:47:47.195Z,81.74
2022-12-13T09:50:58.248Z,82.07
2022-12-13T09:54:19.497Z,82.01
2022-12-13T09:57:31.892Z,81.35
2022-12-13T10:00:37.987Z,82.42
2022-12-13T10:03:45.088Z,82.47
2022-12-13T10:06:47.965Z,83.04
2022-12-13T10:09:56.865Z,83.03
2022-12-13T10:13:09.384Z,84.66
2022-12-13T10:16:23.425Z,85.54
2022-12-13T10:19:34.602Z,84.48
2022-12-13T10:22:37.207Z,84.69
2022-12-13T10:25:50.858Z,82.08
2022-12-13T10:29:04.231Z,83.81
2022-12-13T10:32:14.281Z,82.12
2022-12-13T10:35:25.554Z,82.23
2022-12-13T10:38:32.040Z,81.34
2022-12-13T10:41:36.998Z,80.67
2022-12-13T10:44:39.677Z,80.14
2022-12-13T10:47:45.613Z,79.06
2022-12-13T10:50:58.939Z,80.80
2022-12-13T10:54:02.173Z,79.90
2022-12-13T10:57:05.762Z,80.90
2022-12-13T11:00:32.281Z,80.89
2022-12-13T11:03:36.317Z,79.13
2022-12-13T11:06:43.320Z,78.91
2022-12-13T11:09:52.694Z,79.16
2022-12-13T11:13:01.827Z,80.88
2022-12-13T11:16:06.564Z,80.32
2022-12-13T11:19:21.753Z,80.96
2022-12-13T11:22:30.863Z,80.18
2022-12-13T11:25:40.027Z,80.35
2022-12-13T11:29:07.197Z,80.79
2022-12-13T11:32:22.735Z,81.32
2022-12-13T11:35:33.871Z,81.78
2022-12-13T11:38:56.464Z,81.85
2022-12-13T11:42:07.199Z,81.86
2022-12-13T11:45:22.773Z,82.35
2022-12-13T11:48:36.322Z,82.53
2022-12-13T11:51:45.254Z,83.84
2022-12-13T11:54:55.508Z,83.37
2022-12-13T11:58:06.032Z,81.70
2022-12-13T12:01:13.533Z,82.87
2022-12-13T12:04:22.618Z,81.90
2022-12-13T12:07:34.183Z,83.04
2022-12-13T12:10:45.724Z,82.62
2022-12-13T12:13:55.150Z,82.76
2022-12-13T12:16:59.736Z,83.22
2022-12-13T12:20:03.307Z,83.66
2022-12-13T12:23:18.069Z,82.39
2022-12-13T12:26:27.282Z,84.63
2022-12-13T12:30:04.190Z,84.72
2022-12-13T12:33:18.549Z,84.37
2022-12-13T12:36:44.978Z,84.21
2022-12-13T12:40:04.509Z,84.03
2022-12-13T12:43:16.339Z,84.74
2022-12-13T12:46:58.953Z,83.79
2022-12-13T12:50:17.871Z,84.00
2022-12-13T12:53:38.601Z,83.10
2022-12-13T12:56:51.759Z,82.82
2022-12-13T13:00:03.958Z,82.78
2022-12-13T13:03:22.004Z,82.62
2022-12-13T13:06:30.349Z,83.58
2022-12-13T13:09:34.238Z,82.79
2022-12-13T13:12:43.212Z,81.02
2022-12-13T13:15:56.073Z,82.99
2022-12-13T13:18:59.240Z,82.22
2022-12-13T13:22:03.850Z,80.80
2022-12-13T13:25:31.818Z,80.60
2022-12-13T13:28:35.761Z,81.90
2022-12-13T13:32:01.122Z,82.11
2022-12-13T13:35:53.432Z,80.87
2022-12-13T13:39:01.716Z,80.23
2022-12-13T13:42:18.381Z,80.04
2022-12-13T13:45:24.353Z,80.28
2022-12-13T13:48:46.209Z,79.69
2022-12-13T13:52:24.923Z,80.22
2022-12-13T13:55:49.785Z,79.21
2022-12-13T13:59:31.966Z,78.76
2022-12-13T14:03:21.843Z,78.81
2022-12-13T14:07:05.755Z,78.96
2022-12-13T14:10:23.214Z,78.35
2022-12-13T14:14:00.325Z,78.39
2022-12-13T14:17:50.722Z,79.61
2022-12-13T14:21:03.300Z,79.04
2022-12-13T14:24:26.842Z,79.63
2022-12-13T14:27:40.789Z,79.35
2022-12-13T14:30:47.813Z,79.59
2022-12-13T14:34:02.933Z,80.60
2022-12-13T14:37:20.677Z,80.09
2022-12-13T14:40:30.335Z,78.58
2022-12-13T14:43:35.464Z,80.00
2022-12-13T14:46:38.192Z,79.51
2022-12-13T14:49:48.790Z,79.52
2022-12-13T14:52:53.684Z,78.87
2022-12-13T14:56:11.022Z,79.97
2022-12-13T14:59:33.208Z,80.12
2022-12-13T15:02:35.839Z,79.42
2022-12-13T15:05:45.723Z,79.87
2022-12-13T15:08:55.180Z,78.94
2022-12-13T15:12:15.398Z,79.43
2022-12-13T15:15:27.946Z,80.45
2022-12-13T15:18:31.084Z,80.35
2022-12-13T15:21:33.716Z,80.28
2022-12-13T15:24:41.544Z,79.86
2022-12-13T15:27:48.243Z,80.78
2022-12-13T15:30:52.028Z,79.96
2022-12-13T15:34:00.892Z,79.54
2022-12-13T15:37:07.659Z,80.22
2022-12-13T15:40:31.708Z,80.69
2022-12-13T15:43:37.680Z,81.05
2022-12-13T15:46:40.338Z,81.68
2022-12-13T15:49:50.208Z,82.64
2022-12-13T15:53:01.605Z,81.58
2022-12-13T15:56:29.558Z,81.61
2022-12-13T15:59:34.127Z,81.03
2022-12-13T16:02:38.114Z,81.24
2022-12-13T16:05:49.725Z,82.26
2022-12-13T16:08:53.756Z,81.39
2022-12-13T16:12:00.652Z,80.92
2022-12-13T16:15:28.874Z,80.39
2022-12-13T16:18:34.535Z,81.04
2022-12-13T16:21:37.213Z,80.78
2022-12-13T16:24:39.837Z,80.94
2022-12-13T16:27:44.125Z,79.79
2022-12-13T16:31:03.046Z,80.34
2022-12-13T16:34:06.987Z,81.03
2022-12-13T16:37:25.486Z,80.42
2022-12-13T16:40:31.684Z,82.15
2022-12-13T16:43:38.730Z,83.33
2022-12-13T16:47:12.705Z,82.27
2022-12-13T16:50:10.725Z,81.16
2022-12-13T16:53:17.298Z,82.20
2022-12-13T16:56:21.647Z,82.73
2022-12-13T16:59:27.826Z,81.65
2022-12-13T17:02:30.448Z,81.58
2022-12-13T17:05:34.909Z,81.34
2022-12-13T17:08:37.750Z,81.47
2022-12-13T17:11:40.323Z,80.61
2022-12-13T17:14:44.257Z,80.13
2022-12-13T17:17:48.203Z,80.21
2022-12-13T17:20:58.122Z,80.46
2022-12-13T17:24:02.844Z,81.17
2022-12-13T17:27:05.799Z,80.79
2022-12-13T17:30:15.037Z,80.45
2022-12-13T17:33:17.656Z,81.12
2022-12-13T17:36:20.240Z,81.70
2022-12-13T17:39:22.830Z,81.10
2022-12-13T17:42:25.803Z,81.03
2022-12-13T17:45:29.738Z,80.90
2022-12-13T17:48:39.799Z,80.64
2022-12-13T17:51:43.717Z,80.45
2022-12-13T17:54:54.063Z,80.73
2022-12-13T17:57:59.807Z,80.16
2022-12-13T18:01:16.747Z,79.85
2022-12-13T18:04:19.845Z,80.31
2022-12-13T18:07:22.572Z,80.63
2022-12-13T18:10:29.760Z,80.24
2022-12-13T18:13:32.973Z,80.98
2022-12-13T18:16:38.944Z,80.56
2022-12-13T18:19:41.908Z,81.67
2022-12-13T18:22:51.193Z,81.39
2022-12-13T18:26:00.484Z,82.55
2022-12-13T18:29:03.403Z,81.87
2022-12-13T18:32:07.454Z,80.97
2022-12-13T18:35:10.758Z,80.96
2022-12-13T18:38:13.535Z,81.01
2022-12-13T18:41:18.090Z,81.18
2022-12-13T18:44:20.729Z,80.67
2022-12-13T18:47:26.697Z,80.90
2022-12-13T18:50:29.507Z,81.20
2022-12-13T18:53:33.764Z,80.79
2022-12-13T18:56:36.357Z,81.58
2022-12-13T18:59:38.977Z,80.75
2022-12-13T19:02:42.987Z,81.35
2022-12-13T19:05:45.644Z,81.29
2022-12-13T19:08:49.494Z,80.74
2022-12-13T19:11:52.068Z,79.84
2022-12-13T19:14:55.288Z,81.22
2022-12-13T19:17:59.276Z,81.01
2022-12-13T19:21:02.184Z,82.19
2022-12-13T19:24:05.714Z,82.82
2022-12-13T19:27:08.322Z,81.56
2022-12-13T19:30:11.714Z,80.86
2022-12-13T19:33:17.219Z,81.02
2022-12-13T19:36:19.787Z,81.23
2022-12-13T19:39:22.472Z,80.64
2022-12-13T19:42:25.083Z,83.19
2022-12-13T19:45:27.675Z,82.38
2022-12-13T19:48:31.609Z,80.82
2022-12-13T19:51:39.229Z,81.91
2022-12-13T19:54:42.498Z,82.37
2022-12-13T19:57:45.488Z,82.36
2022-12-13T20:00:48.166Z,81.33
2022-12-13T20:03:52.154Z,80.82
2022-12-13T20:06:54.755Z,80.62
2022-12-13T20:09:57.375Z,80.35
2022-12-13T20:12:59.954Z,80.80
2022-12-13T20:16:03.063Z,82.32
2022-12-13T20:19:07.020Z,83.10
2022-12-13T20:22:09.588Z,81.46
2022-12-13T20:25:12.528Z,80.63
2022-12-13T20:28:16.526Z,80.65
2022-12-13T20:31:21.986Z,80.00
2022-12-13T20:34:25.980Z,80.05
2022-12-13T20:37:28.599Z,80.39
2022-12-13T20:40:31.192Z,79.87
2022-12-13T20:43:34.659Z,80.70
2022-12-13T20:46:37.427Z,80.29
2022-12-13T20:49:41.414Z,80.40
2022-12-13T20:52:49.137Z,79.75
2022-12-13T20:55:57.576Z,79.81
2022-12-13T20:59:00.186Z,79.28
2022-12-13T21:02:02.848Z,77.94
2022-12-13T21:05:07.533Z,80.22
2022-12-13T21:08:27.689Z,78.98
2022-12-13T21:11:32.048Z,78.87
2022-12-13T21:14:35.037Z,77.58
2022-12-13T21:17:39.030Z,77.79
2022-12-13T21:20:42.965Z,77.92
2022-12-13T21:23:45.556Z,77.79
2022-12-13T21:26:48.320Z,77.99
2022-12-13T21:29:50.898Z,78.87
2022-12-13T21:32:53.493Z,77.41
2022-12-13T21:35:57.813Z,78.56
2022-12-13T21:39:01.561Z,78.41
2022-12-13T21:42:04.191Z,78.28
2022-12-13T21:45:07.902Z,78.94
2022-12-13T21:48:10.930Z,78.83
2022-12-13T21:51:16.661Z,78.77
2022-12-13T21:54:19.371Z,78.86
2022-12-13T21:57:39.656Z,78.91
2022-12-13T22:00:42.330Z,78.47
2022-12-13T22:03:44.990Z,79.33
2022-12-13T22:06:48.937Z,78.41
2022-12-13T22:09:52.435Z,79.73
2022-12-13T22:12:57.117Z,79.63
2022-12-13T22:15:59.714Z,79.28
2022-12-13T22:19:02.304Z,79.79
2022-12-13T22:22:06.420Z,79.03
2022-12-13T22:25:09.849Z,79.48
2022-12-13T22:28:12.434Z,80.09
2022-12-13T22:31:15.136Z,78.58
2022-12-13T22:34:18.033Z,78.75
2022-12-13T22:37:22.669Z,78.36
2022-12-13T22:40:25.245Z,78.59
2022-12-13T22:43:27.912Z,78.54
2022-12-13T22:46:30.511Z,79.19
2022-12-13T22:49:33.105Z,77.76
2022-12-13T22:52:37.172Z,77.82
2022-12-13T22:55:39.766Z,77.99
2022-12-13T22:58:43.400Z,77.98
2022-12-13T23:01:47.373Z,78.31
2022-12-13T23:04:50.251Z,78.82
2022-12-13T23:07:54.196Z,78.05
2022-12-13T23:11:17.461Z,77.94
2022-12-13T23:14:21.742Z,77.83
2022-12-13T23:17:24.340Z,78.22
2022-12-13T23:20:26.954Z,78.73
2022-12-13T23:23:31.716Z,78.36
2022-12-13T23:26:35.285Z,78.33
2022-12-13T23:29:38.010Z,78.68
2022-12-13T23:32:40.635Z,77.87
2022-12-13T23:35:43.227Z,77.89
2022-12-13T23:38:47.815Z,78.20
2022-12-13T23:41:50.601Z,77.86
2022-12-13T23:44:53.174Z,77.25
2022-12-13T23:47:55.773Z,77.71
2022-12-13T23:50:58.368Z,77.91
2022-12-13T23:54:02.606Z,77.52
2022-12-13T23:57:05.545Z,77.76
